Weaver, AL (36277)

7:22 AM CDT on October 22, 2014 (GMT -0500)
RAWS MT. LONGLEAF AL US | Change Station
CLOSE
Current Station
Personal Weather Station
Location: Fort McClellan, AL
Elevation: 1049 ft
Nearby Weather Stations

Elev 1049 ft 33.72 °N, 85.76 °W | Updated 36 minutes ago

Clear
Clear
42 °F
Feels Like 42 °F
N
2
Wind Variable Wind from NNW
Gusts 4.0 mph

Today
High -- | Low -- °F
--% Chance of Precip.
Yesterday
High -- | Low -- °F
Precip. -- in
6:53 AM 6:01 PM
Waning Crescent, 2% visible
Pressure 30.14 in
Visibility 10.0 miles
Clouds Clear
Windchill 42 °F
Dew Point 41 °F
Humidity 95%
Rainfall 0.00 in
Snow Depth Not available.
UV 0 out of 12
Pollen 2.30 out of 12
Ozone Good
PM2.5 Moderate
Flu Activity Sporadic
METAR KANB 221153Z AUTO 00000KT 10SM CLR 07/05 A3013 RMK AO2 SLP207 T00670050 10106 20050 53011

More Conditions Fewer Conditions

Pressure 30.14 in
Visibility 10.0 miles
Clouds Clear
Windchill 42 °F
Dew Point 41 °F
Humidity 95%
Rainfall 0.00 in
Snow Depth Not available.
UV 0 out of 12
Pollen 2.30 out of 12
Ozone Good
PM2.5 Moderate
Flu Activity Sporadic
METAR KANB 221153Z AUTO 00000KT 10SM CLR 07/05 A3013 RMK AO2 SLP207 T00670050 10106 20050 53011

More Conditions Fewer Conditions

10-Day Weather Forecast

Almanac

Astronomy

Oct. 22, 2014 Rise Set
Actual Time 6:53 AM CDT 6:01 PM CDT
Civil Twilight 6:28 AM CDT 6:26 PM CDT
Nautical Twilight 5:59 AM CDT 6:55 PM CDT
Astronomical Twilight 5:30 AM CDT 7:24 PM CDT
Moon 5:38 AM CDT 5:25 PM CDT
Length of Visible Light 11h 58m
Length of Day
11h 07m
Tomorrow will be 1m 57s shorter.
Waning Crescent, 2% of the Moon is Illuminated
Today
Waning Crescent
Oct 23
New
Oct 30
First Quarter
Nov 6
Full
Nov 14
Last Quarter

Today's Extremes

State Highs State Lows

Community

WunderPhotos

Upload Photos

1,763,907 photos uploaded!

Nearby

Air Quality

  Air Quality AQ Index Pollutant
Yesterday Good
PM10
Yesterday Good
OZONE
Current Moderate
PM2.5
Current Good
OZONE
Wednesday Good
PM2.5

Snow Depth

Station Depth Elevation
No new snow has been reported.

Earthquake Activity

City Distance Mag. Time & Date
No recent earthquake activity has been reported nearby.
Minimum magnitude displayed is 2.5.

Coastal Water Temperatures

Place Temperature
No Stations Reporting

Nearby Weather Stations